createdAt,value
2023-10-23T00:00:03.647Z,2.42
2023-10-23T00:05:13.596Z,1.67
2023-10-23T00:10:16.381Z,2.55
2023-10-23T00:20:21.557Z,1.20
2023-10-23T00:25:23.762Z,1.00
2023-10-23T00:30:25.955Z,1.30
2023-10-23T00:35:28.080Z,1.15
2023-10-23T00:40:30.945Z,1.10
2023-10-23T00:45:33.521Z,0.90
2023-10-23T00:50:36.098Z,1.00
2023-10-23T00:55:38.844Z,0.55
2023-10-23T01:00:41.799Z,1.30
2023-10-23T01:05:44.751Z,0.60
2023-10-23T01:10:47.437Z,1.25
2023-10-23T01:20:52.310Z,0.90
2023-10-23T01:25:55.080Z,1.10
2023-10-23T01:30:57.322Z,1.10
2023-10-23T01:35:59.531Z,1.10
2023-10-23T01:41:01.892Z,1.15
2023-10-23T01:46:04.247Z,0.68
2023-10-23T01:51:06.448Z,1.40
2023-10-23T01:56:09.498Z,1.10
2023-10-23T02:01:34.074Z,1.00
2023-10-23T02:06:36.369Z,1.40
2023-10-23T02:11:38.522Z,0.60
2023-10-23T02:16:40.787Z,0.50
2023-10-23T02:21:50.528Z,0.80
2023-10-23T02:26:55.351Z,0.85
2023-10-23T02:31:57.875Z,1.10
2023-10-23T02:37:00.027Z,0.80
2023-10-23T02:42:02.704Z,0.52
2023-10-23T02:47:05.104Z,1.13
2023-10-23T02:52:07.259Z,1.30
2023-10-23T02:57:09.341Z,1.10
2023-10-23T03:02:11.473Z,1.30
2023-10-23T03:07:14.687Z,1.12
2023-10-23T03:12:16.807Z,1.00
2023-10-23T03:17:19.623Z,1.25
2023-10-23T03:22:21.773Z,0.90
2023-10-23T03:27:23.924Z,1.37
2023-10-23T03:32:26.341Z,1.15
2023-10-23T03:37:28.798Z,1.83
2023-10-23T03:42:30.953Z,1.33
2023-10-23T03:47:33.177Z,1.73
2023-10-23T03:52:35.304Z,2.42
2023-10-23T03:57:37.411Z,1.30
2023-10-23T04:02:39.616Z,1.20
2023-10-23T04:07:42.280Z,1.30
2023-10-23T04:17:46.785Z,0.90
2023-10-23T04:22:49.419Z,0.73
2023-10-23T04:32:54.022Z,1.15
2023-10-23T04:37:56.126Z,0.68
2023-10-23T04:42:58.244Z,2.35
2023-10-23T04:48:00.408Z,0.85
2023-10-23T04:53:03.064Z,0.75
2023-10-23T04:58:05.674Z,0.62
2023-10-23T05:03:09.734Z,1.30
2023-10-23T05:08:11.890Z,1.30
2023-10-23T05:13:14.518Z,1.12
2023-10-23T05:23:19.042Z,1.00
2023-10-23T05:28:21.138Z,1.20
2023-10-23T05:33:23.589Z,1.65
2023-10-23T05:43:28.532Z,0.80
2023-10-23T05:48:32.113Z,1.50
2023-10-23T05:53:35.804Z,1.10
2023-10-23T05:58:38.208Z,1.35
2023-10-23T06:03:40.438Z,2.58
2023-10-23T06:08:42.818Z,1.50
2023-10-23T06:13:44.891Z,1.55
2023-10-23T06:18:47.003Z,0.80
2023-10-23T06:23:49.568Z,0.70
2023-10-23T06:33:54.372Z,0.40
2023-10-23T06:38:56.827Z,0.35
2023-10-23T06:43:58.930Z,0.80
2023-10-23T06:49:00.990Z,0.55
2023-10-23T06:54:05.133Z,0.80
2023-10-23T06:59:07.271Z,0.45
2023-10-23T07:04:09.562Z,1.20
2023-10-23T07:09:11.939Z,1.10
2023-10-23T07:14:15.241Z,1.55
2023-10-23T07:19:17.327Z,1.13
2023-10-23T07:24:19.868Z,1.37
2023-10-23T07:29:22.125Z,1.40
2023-10-23T07:34:24.325Z,1.12
2023-10-23T07:39:26.849Z,1.30
2023-10-23T07:44:28.940Z,1.00
2023-10-23T07:49:31.086Z,1.50
2023-10-23T07:54:33.281Z,1.62
2023-10-23T07:59:35.451Z,1.17
2023-10-23T08:04:37.779Z,1.10
2023-10-23T08:09:40.325Z,1.45
2023-10-23T08:19:44.952Z,1.70
2023-10-23T08:24:47.853Z,1.98
2023-10-23T08:29:50.384Z,1.80
2023-10-23T08:34:55.961Z,2.30
2023-10-23T08:39:58.461Z,2.40
2023-10-23T08:50:04.425Z,3.30
2023-10-23T08:55:11.386Z,4.33
2023-10-23T09:00:14.297Z,4.67
2023-10-23T09:05:16.976Z,4.87
2023-10-23T09:10:24.220Z,4.43
2023-10-23T09:15:26.584Z,4.12
2023-10-23T09:20:29.053Z,4.65
2023-10-23T09:30:33.576Z,3.78
2023-10-23T09:35:35.651Z,4.15
2023-10-23T09:40:37.783Z,4.18
2023-10-23T09:45:41.336Z,4.82
2023-10-23T09:50:46.167Z,5.68
2023-10-23T09:55:50.831Z,6.55
2023-10-23T10:00:57.154Z,6.50
2023-10-23T10:06:10.323Z,5.80
2023-10-23T10:11:14.284Z,5.32
2023-10-23T10:16:16.741Z,5.93
2023-10-23T10:21:23.911Z,6.03
2023-10-23T10:26:26.625Z,5.37
2023-10-23T10:31:28.911Z,6.12
2023-10-23T10:36:45.737Z,4.95
2023-10-23T10:41:52.949Z,7.30
2023-10-23T10:46:56.442Z,6.78
2023-10-23T10:51:59.107Z,6.37
2023-10-23T10:57:01.248Z,6.47
2023-10-23T11:02:04.229Z,6.30
2023-10-23T11:07:07.884Z,7.53
2023-10-23T11:12:10.075Z,8.02
2023-10-23T11:17:13.221Z,6.22
2023-10-23T11:22:16.975Z,6.32
2023-10-23T11:27:19.609Z,5.75
2023-10-23T11:32:21.874Z,6.82
2023-10-23T11:37:24.064Z,5.85
2023-10-23T11:42:26.238Z,5.30
2023-10-23T11:47:28.515Z,6.03
2023-10-23T11:52:30.826Z,4.32
2023-10-23T11:57:35.192Z,4.32
2023-10-23T12:02:37.349Z,4.45
2023-10-23T12:07:44.777Z,4.57
2023-10-23T12:12:48.106Z,4.07
2023-10-23T12:17:51.884Z,4.10
2023-10-23T12:22:54.038Z,3.08
2023-10-23T12:27:58.576Z,4.07
2023-10-23T12:33:16.720Z,4.15
2023-10-23T12:38:24.922Z,4.57
2023-10-23T12:43:27.176Z,5.15
2023-10-23T12:48:29.812Z,4.85
2023-10-23T12:53:32.061Z,5.18
2023-10-23T12:58:34.802Z,5.18
2023-10-23T13:03:37.103Z,4.95
2023-10-23T13:08:40.605Z,5.90
2023-10-23T13:13:42.751Z,6.22
2023-10-23T13:18:53.749Z,5.85
2023-10-23T13:23:56.474Z,5.70
2023-10-23T13:28:59.030Z,5.55
2023-10-23T13:34:01.647Z,4.90
2023-10-23T13:39:07.154Z,5.35
2023-10-23T13:44:09.463Z,5.22
2023-10-23T13:49:11.829Z,5.47
2023-10-23T13:54:14.215Z,4.45
2023-10-23T13:59:16.363Z,4.50
2023-10-23T14:04:18.637Z,5.45
2023-10-23T14:09:41.850Z,5.28
2023-10-23T14:14:43.196Z,6.12
2023-10-23T14:19:48.757Z,5.28
2023-10-23T14:24:51.931Z,5.40
2023-10-23T14:34:56.704Z,6.10
2023-10-23T14:39:59.550Z,5.93
2023-10-23T14:45:04.938Z,4.70
2023-10-23T14:50:08.186Z,4.37
2023-10-23T14:55:10.373Z,6.68
2023-10-23T15:00:12.967Z,7.10
2023-10-23T15:10:19.743Z,8.23
2023-10-23T15:15:24.994Z,7.30
2023-10-23T15:20:30.980Z,7.30
2023-10-23T15:25:33.184Z,6.85
2023-10-23T15:30:35.449Z,7.68
2023-10-23T15:35:37.835Z,5.97
2023-10-23T15:40:40.077Z,6.90
2023-10-23T15:45:42.359Z,5.35
2023-10-23T15:50:44.501Z,5.57
2023-10-23T15:55:48.091Z,5.82
2023-10-23T16:00:53.932Z,6.37
2023-10-23T16:06:08.780Z,6.45
2023-10-23T16:11:10.891Z,4.82
2023-10-23T16:16:16.793Z,5.20
2023-10-23T16:21:20.274Z,5.82
2023-10-23T16:26:22.952Z,5.82
2023-10-23T16:31:25.856Z,6.03
2023-10-23T16:41:31.227Z,4.97
2023-10-23T16:46:34.395Z,5.55
2023-10-23T16:51:36.619Z,4.30
2023-10-23T16:56:38.901Z,6.90
2023-10-23T17:01:41.152Z,5.68
2023-10-23T17:06:43.502Z,6.57
2023-10-23T17:11:46.086Z,6.75
2023-10-23T17:16:48.401Z,5.15
2023-10-23T17:21:50.532Z,5.60
2023-10-23T17:26:52.704Z,6.07
2023-10-23T17:31:54.987Z,4.93
2023-10-23T17:36:57.734Z,4.95
2023-10-23T17:42:01.445Z,5.57
2023-10-23T17:47:04.685Z,4.70
2023-10-23T17:52:07.102Z,4.50
2023-10-23T17:57:09.276Z,6.28
2023-10-23T18:02:11.483Z,4.15
2023-10-23T18:07:14.380Z,6.47
2023-10-23T18:12:31.209Z,4.70
2023-10-23T18:17:37.649Z,4.25
2023-10-23T18:22:40.112Z,5.68
2023-10-23T18:27:42.668Z,12.32
2023-10-23T18:32:44.854Z,10.88
2023-10-23T18:37:47.535Z,7.32
2023-10-23T18:47:58.054Z,4.15
2023-10-23T18:53:01.536Z,4.03
2023-10-23T18:58:04.215Z,11.10
2023-10-23T19:13:13.963Z,8.82
2023-10-23T19:18:19.407Z,10.70
2023-10-23T19:23:23.936Z,6.82
2023-10-23T19:28:27.465Z,9.98
2023-10-23T19:33:30.091Z,7.90
2023-10-23T19:43:42.588Z,7.20
2023-10-23T19:48:46.307Z,7.28
2023-10-23T19:53:53.280Z,6.30
2023-10-23T19:58:57.048Z,10.50
2023-10-23T20:03:59.482Z,10.15
2023-10-23T20:09:02.247Z,6.72
2023-10-23T20:19:08.863Z,4.43
2023-10-23T20:24:12.954Z,5.22
2023-10-23T20:29:15.078Z,4.90
2023-10-23T20:34:17.477Z,4.57
2023-10-23T20:39:19.768Z,4.78
2023-10-23T20:44:21.870Z,3.72
2023-10-23T20:49:24.056Z,5.47
2023-10-23T20:54:26.161Z,5.30
2023-10-23T20:59:28.263Z,5.68
2023-10-23T21:04:30.447Z,4.95
2023-10-23T21:09:33.095Z,5.47
2023-10-23T21:14:47.278Z,4.72
2023-10-23T21:19:49.450Z,4.87
2023-10-23T21:24:51.711Z,3.83
2023-10-23T21:29:53.847Z,3.85
2023-10-23T21:34:55.992Z,4.40
2023-10-23T21:39:58.627Z,4.53
2023-10-23T21:45:00.714Z,4.55
2023-10-23T21:50:03.219Z,4.07
2023-10-23T21:55:13.895Z,3.72
2023-10-23T22:00:30.532Z,4.43
2023-10-23T22:05:33.274Z,3.78
2023-10-23T22:15:37.916Z,4.47
2023-10-23T22:20:42.319Z,4.28
2023-10-23T22:25:44.526Z,4.03
2023-10-23T22:30:47.595Z,4.10
2023-10-23T22:35:49.820Z,3.87
2023-10-23T22:40:52.287Z,2.87
2023-10-23T22:46:02.159Z,3.25
2023-10-23T22:51:06.652Z,4.70
2023-10-23T22:56:11.876Z,4.18
2023-10-23T23:01:14.746Z,4.78
2023-10-23T23:06:19.760Z,4.60
2023-10-23T23:11:22.067Z,4.57
2023-10-23T23:16:26.298Z,4.32
2023-10-23T23:21:30.080Z,3.78
2023-10-23T23:26:32.604Z,3.90
2023-10-23T23:31:34.761Z,3.58
2023-10-23T23:36:37.124Z,4.07
2023-10-23T23:41:39.248Z,4.30
2023-10-23T23:46:42.367Z,3.42
2023-10-23T23:51:44.567Z,3.87
2023-10-23T23:56:47.044Z,3.47
